createdAt,value
2022-12-11T00:04:44.808Z,2.86
2022-12-11T00:14:49.521Z,2.78
2022-12-11T00:24:54.187Z,2.73
2022-12-11T00:35:03.058Z,2.67
2022-12-11T00:45:06.025Z,2.51
2022-12-11T00:55:08.021Z,2.42
2022-12-11T01:05:12.164Z,2.34
2022-12-11T01:15:14.056Z,2.15
2022-12-11T01:25:15.741Z,2.04
2022-12-11T01:35:17.951Z,1.99
2022-12-11T01:45:24.697Z,1.84
2022-12-11T01:55:28.710Z,1.61
2022-12-11T02:05:30.492Z,1.49
2022-12-11T02:15:41.678Z,1.39
2022-12-11T02:26:10.023Z,1.19
2022-12-11T02:36:16.752Z,0.97
2022-12-11T02:46:22.028Z,0.84
2022-12-11T02:56:53.903Z,0.70
2022-12-11T03:07:01.590Z,0.68
2022-12-11T03:17:20.090Z,0.66
2022-12-11T03:27:38.840Z,0.63
2022-12-11T03:37:57.752Z,0.55
2022-12-11T03:48:02.444Z,0.52
2022-12-11T03:58:05.209Z,0.46
2022-12-11T04:08:08.072Z,0.43
2022-12-11T04:18:34.245Z,0.36
2022-12-11T04:28:37.716Z,0.38
2022-12-11T04:38:41.489Z,0.31
2022-12-11T04:48:43.522Z,0.36
2022-12-11T04:58:47.121Z,0.34
2022-12-11T05:08:48.761Z,0.40
2022-12-11T05:18:58.741Z,0.42
2022-12-11T05:29:00.416Z,0.44
2022-12-11T05:39:03.834Z,0.58
2022-12-11T05:49:06.253Z,0.54
2022-12-11T05:59:07.990Z,0.49
2022-12-11T06:09:13.787Z,0.50
2022-12-11T06:19:18.412Z,0.47
2022-12-11T06:29:20.153Z,0.52
2022-12-11T06:39:21.855Z,0.54
2022-12-11T06:49:23.692Z,0.56
2022-12-11T06:59:25.413Z,0.51
2022-12-11T07:09:27.308Z,0.51
2022-12-11T07:19:39.093Z,0.68
2022-12-11T07:29:40.977Z,0.82
2022-12-11T07:39:43.194Z,0.91
2022-12-11T07:49:45.001Z,1.31
2022-12-11T07:59:46.851Z,1.34
2022-12-11T08:09:50.604Z,1.47
2022-12-11T08:19:52.729Z,1.33
2022-12-11T08:29:54.397Z,1.22
2022-12-11T08:39:56.055Z,1.16
2022-12-11T08:49:59.907Z,1.05
2022-12-11T09:00:01.776Z,1.37
2022-12-11T09:10:06.345Z,1.42
2022-12-11T09:20:17.068Z,1.32
2022-12-11T09:30:18.962Z,1.20
2022-12-11T09:40:22.150Z,1.35
2022-12-11T09:50:27.604Z,1.32
2022-12-11T10:00:40.165Z,1.52
2022-12-11T10:10:51.784Z,1.61
2022-12-11T10:20:54.771Z,1.43
2022-12-11T10:31:19.263Z,1.57
2022-12-11T10:41:33.813Z,1.54
2022-12-11T10:51:40.105Z,1.44
2022-12-11T11:01:47.101Z,1.11
2022-12-11T11:11:50.717Z,1.46
2022-12-11T11:22:15.325Z,1.48
2022-12-11T11:32:24.181Z,1.59
2022-12-11T11:42:46.178Z,1.73
2022-12-11T11:52:55.965Z,1.53
2022-12-11T12:03:10.842Z,1.82
2022-12-11T12:13:51.496Z,1.71
2022-12-11T12:24:34.922Z,1.88
2022-12-11T12:34:46.060Z,1.93
2022-12-11T12:45:07.746Z,1.82
2022-12-11T12:55:23.519Z,1.77
2022-12-11T13:05:28.232Z,1.70
2022-12-11T13:15:34.770Z,1.85
2022-12-11T13:25:55.336Z,1.73
2022-12-11T13:36:25.155Z,1.60
2022-12-11T13:46:34.763Z,1.60
2022-12-11T13:56:39.448Z,1.54
2022-12-11T14:06:41.846Z,1.37
2022-12-11T14:16:43.938Z,1.33
2022-12-11T14:26:52.663Z,1.25
2022-12-11T14:36:56.411Z,1.18
2022-12-11T14:47:06.222Z,1.00
2022-12-11T14:57:20.451Z,0.78
2022-12-11T15:07:26.594Z,0.93
2022-12-11T15:17:31.183Z,0.61
2022-12-11T15:27:40.390Z,0.69
2022-12-11T15:37:52.984Z,0.77
2022-12-11T15:47:55.481Z,0.64
2022-12-11T15:58:03.671Z,0.59
2022-12-11T16:08:24.462Z,0.44
2022-12-11T16:18:29.516Z,0.41
2022-12-11T16:28:33.389Z,0.34
2022-12-11T16:38:39.777Z,0.51
2022-12-11T16:48:46.758Z,0.28
2022-12-11T16:58:49.808Z,0.27
2022-12-11T17:08:52.519Z,0.16
2022-12-11T17:18:57.258Z,0.25
2022-12-11T17:29:06.899Z,0.26
2022-12-11T17:39:11.334Z,0.15
2022-12-11T17:49:20.584Z,0.23
2022-12-11T17:59:25.200Z,0.10
2022-12-11T18:09:28.267Z,0.01
2022-12-11T18:19:42.819Z,0.07
2022-12-11T18:29:57.850Z,-0.02
2022-12-11T18:40:00.296Z,-0.04
2022-12-11T18:50:07.605Z,-0.10
2022-12-11T19:00:23.599Z,-0.06
2022-12-11T19:10:30.384Z,-0.08
2022-12-11T19:20:57.791Z,-0.19
2022-12-11T19:31:01.916Z,-0.23
2022-12-11T19:41:12.755Z,-0.25
2022-12-11T19:51:20.971Z,-0.32
2022-12-11T20:01:29.375Z,-0.23
2022-12-11T20:11:34.567Z,-0.37
2022-12-11T20:21:37.169Z,-0.65
2022-12-11T20:31:50.845Z,-0.66
2022-12-11T20:42:03.486Z,-0.77
2022-12-11T20:52:07.263Z,-0.73
2022-12-11T21:02:13.581Z,-0.93
2022-12-11T21:12:15.941Z,-0.93
2022-12-11T21:22:20.062Z,-1.03
2022-12-11T21:32:22.047Z,-1.08
2022-12-11T21:42:28.915Z,-1.22
2022-12-11T21:52:30.860Z,-1.18
2022-12-11T22:02:36.082Z,-1.46
2022-12-11T22:12:56.498Z,-1.34
2022-12-11T22:22:58.203Z,-1.43
2022-12-11T22:33:01.956Z,-1.54
2022-12-11T22:43:11.592Z,-1.51
2022-12-11T22:53:16.481Z,-1.82
2022-12-11T23:03:18.234Z,-1.88
2022-12-11T23:13:21.183Z,-1.97
2022-12-11T23:23:22.908Z,-2.15
2022-12-11T23:33:24.901Z,-2.06
2022-12-11T23:43:27.168Z,-2.14
2022-12-11T23:53:29.459Z,-2.13
